KCOE Airport (Coeur D'Alene - Pappy Boyington Field) Information

FAA: COE - ICAO: KCOE

KCOE Airport Location

State Idaho
County Kootenai
City Coeur D'Alene
KCOE Airport is 9 miles northwest of Coeur D'Alene, ID.
Latitude 47-46-27.5000N
Longitude 116-49-10.5000W
Elevation 2,320ft

KCOE Airport METARs

METAR KCOE 302256Z AUTO 33006KT 10SM CLR 18/11 A3016 RMK AO2 SLP228 T01780106 PNO $
Altimeter 30.16"
Temperature 17.8°C (64.0°F)
Wind 330° at 6KT
Clouds Skies are clear.
Visibility 10.0mi
Time observed: 2022-09-30T22:56:00Z

KCOE Airport Details

Status Operational
Activation December 1942
Ownership Public
Usage Public
Chart GREAT FALLS
ATC on-site No
Beacon schedule sunset-sunrise
Beacon color clear green

KCOE Airport Contacts

Owner KOOTENAI COUNTY
Owner address PO BOX 9000, COEUR D ALENE, ID 83816
Owner phone 208-446-1600
Manager JOHN T. SCANLON
Manager address 21905 W. RIVERVIEW DR, POST FALLS, ID 83854
Manager phone (509) 994-0412

KCOE Airport (Coeur D'Alene - Pappy Boyington Field) Radio Frequencies

KCOE (Airport) Radio Frequencies

UNICOM 122.8
Common traffic advisory frequency (CTAF) 122.8